Time;durP1;ratioP1;P1;durP2;ratioP2;P2;SDS_P1;SDS_P2;PMS_P1;PMS_P2;Temp;Humidity;BMP_temperature;BMP_pressure;BME280_temperature;BME280_humidity;BME280_pressure;Samples;Min_cycle;Max_cycle;Signal;HPM_P1;HPM_P2
2022/04/28 00:00:12;;;;;;;11.77;9.38;;;;;;;;;;512610;28;1496;-82
2022/04/28 00:00:28;;;;;;;10.60;9.50;;;;;;;;;;512531;28;1773;-82
2022/04/28 00:00:44;;;;;;;10.93;9.60;;;;;;;;;;513352;28;1509;-82
2022/04/28 00:00:59;;;;;;;11.10;9.77;;;;;;;;;;514403;28;1578;-82
2022/04/28 00:01:15;;;;;;;10.87;9.73;;;;;;;;;;514864;28;1585;-82
2022/04/28 00:01:30;;;;;;;11.65;9.82;;;;;;;;;;516775;28;1845;-82
2022/04/28 00:01:45;;;;;;;12.27;10.00;;;;;;;;;;516612;28;1437;-82
2022/04/28 00:02:01;;;;;;;10.93;9.80;;;;;;;;;;516241;28;1971;-82
2022/04/28 00:02:16;;;;;;;11.85;9.70;;;;;;;;;;516447;28;1530;-82
2022/04/28 00:02:33;;;;;;;12.33;9.70;;;;;;;;;;516539;28;1910;-82
2022/04/28 00:02:48;;;;;;;11.23;9.93;;;;;;;;;;516513;28;1648;-82
2022/04/28 00:03:04;;;;;;;11.50;10.30;;;;;;;;;;516440;28;1731;-82
2022/04/28 00:03:19;;;;;;;11.32;10.20;;;;;;;;;;514192;28;1496;-82
2022/04/28 00:03:35;;;;;;;11.30;9.70;;;;;;;;;;514843;28;1750;-82
2022/04/28 00:03:51;;;;;;;12.25;9.70;;;;;;;;;;515756;28;1460;-82
2022/04/28 00:04:06;;;;;;;11.25;9.48;;;;;;;;;;514493;28;1385;-82
2022/04/28 00:04:22;;;;;;;10.57;9.47;;;;;;;;;;514322;28;1591;-82
2022/04/28 00:04:37;;;;;;;10.88;9.77;;;;;;;;;;512286;28;1398;-81
2022/04/28 00:04:52;;;;;;;10.93;9.80;;;;;;;;;;510317;28;1573;-82
2022/04/28 00:05:09;;;;;;;10.97;9.87;;;;;;;;;;508916;29;1884;-82
2022/04/28 00:05:24;;;;;;;10.75;9.75;;;;;;;;;;511029;28;1576;-82
2022/04/28 00:05:40;;;;;;;10.55;9.55;;;;;;;;;;512136;28;1450;-82
2022/04/28 00:05:57;;;;;;;10.43;9.43;;;;;;;;;;513169;28;1737;-82
2022/04/28 00:06:12;;;;;;;10.50;9.45;;;;;;;;;;512761;28;1517;-82
2022/04/28 00:06:27;;;;;;;10.63;9.40;;;;;;;;;;513138;28;1633;-82
2022/04/28 00:06:43;;;;;;;11.88;9.45;;;;;;;;;;514054;28;1480;-82
2022/04/28 00:06:58;;;;;;;11.87;9.40;;;;;;;;;;513831;28;1815;-82
2022/04/28 00:07:14;;;;;;;12.13;9.55;;;;;;;;;;513180;28;1501;-82
2022/04/28 00:07:29;;;;;;;12.20;9.73;;;;;;;;;;514452;28;1707;-82
2022/04/28 00:07:46;;;;;;;12.13;9.80;;;;;;;;;;514494;28;1413;-82
2022/04/28 00:08:02;;;;;;;12.10;9.75;;;;;;;;;;514675;28;1492;-82
2022/04/28 00:08:18;;;;;;;10.90;9.67;;;;;;;;;;514446;28;1628;-82
2022/04/28 00:08:33;;;;;;;10.63;9.63;;;;;;;;;;514372;28;1460;-82
2022/04/28 00:08:48;;;;;;;10.50;9.50;;;;;;;;;;513042;28;1595;-82
2022/04/28 00:09:05;;;;;;;10.30;9.25;;;;;;;;;;512378;28;1600;-82
2022/04/28 00:09:21;;;;;;;11.37;9.30;;;;;;;;;;512599;28;1671;-82
2022/04/28 00:09:36;;;;;;;12.07;9.50;;;;;;;;;;510866;28;1434;-82
2022/04/28 00:09:51;;;;;;;10.67;9.57;;;;;;;;;;512522;28;1541;-82
2022/04/28 00:10:08;;;;;;;10.73;9.63;;;;;;;;;;512397;28;1496;-82
2022/04/28 00:10:24;;;;;;;10.45;9.45;;;;;;;;;;514474;28;1612;-82
2022/04/28 00:10:40;;;;;;;10.57;9.48;;;;;;;;;;514972;28;1693;-81
2022/04/28 00:10:55;;;;;;;10.55;9.45;;;;;;;;;;517268;28;1420;-82
2022/04/28 00:11:11;;;;;;;10.85;9.38;;;;;;;;;;516296;28;1677;-82
2022/04/28 00:11:27;;;;;;;12.27;9.32;;;;;;;;;;515680;28;1459;-81
2022/04/28 00:11:43;;;;;;;10.33;9.20;;;;;;;;;;514292;28;1513;-82
2022/04/28 00:11:58;;;;;;;10.30;9.25;;;;;;;;;;514324;28;1463;-82
2022/04/28 00:12:13;;;;;;;10.90;9.70;;;;;;;;;;514216;28;1932;-81
2022/04/28 00:12:29;;;;;;;11.13;9.90;;;;;;;;;;513892;28;1519;-82
2022/04/28 00:12:45;;;;;;;11.30;10.10;;;;;;;;;;514635;28;1694;-82
2022/04/28 00:13:00;;;;;;;10.63;9.52;;;;;;;;;;514634;28;1658;-82
2022/04/28 00:13:17;;;;;;;11.07;9.30;;;;;;;;;;516218;28;1579;-82
2022/04/28 00:13:32;;;;;;;10.48;9.43;;;;;;;;;;516197;28;1861;-81
2022/04/28 00:13:47;;;;;;;10.50;9.40;;;;;;;;;;516608;28;1412;-82
2022/04/28 00:14:03;;;;;;;10.82;9.52;;;;;;;;;;516106;28;1566;-81
2022/04/28 00:14:19;;;;;;;10.47;9.23;;;;;;;;;;516126;28;1508;-82
2022/04/28 00:14:35;;;;;;;12.13;9.10;;;;;;;;;;514117;28;1660;-81
2022/04/28 00:14:50;;;;;;;11.73;8.97;;;;;;;;;;512427;28;1459;-81
2022/04/28 00:15:06;;;;;;;10.67;9.10;;;;;;;;;;511891;28;1663;-82
2022/04/28 00:15:22;;;;;;;11.25;9.30;;;;;;;;;;511968;28;1481;-82
2022/04/28 00:15:37;;;;;;;11.00;9.40;;;;;;;;;;512464;28;1629;-82
2022/04/28 00:15:53;;;;;;;11.63;9.70;;;;;;;;;;512314;28;1465;-82
2022/04/28 00:16:08;;;;;;;10.73;9.60;;;;;;;;;;514103;28;1892;-81
2022/04/28 00:16:24;;;;;;;10.40;9.40;;;;;;;;;;512749;28;1401;-82
2022/04/28 00:16:39;;;;;;;11.30;9.60;;;;;;;;;;514511;28;1437;-82
2022/04/28 00:16:55;;;;;;;11.33;9.47;;;;;;;;;;516380;28;1546;-82
2022/04/28 00:17:10;;;;;;;10.33;9.23;;;;;;;;;;516344;28;1748;-82
2022/04/28 00:17:26;;;;;;;10.20;9.13;;;;;;;;;;516294;28;1542;-81
2022/04/28 00:17:41;;;;;;;10.60;9.30;;;;;;;;;;514425;28;1440;-82
2022/04/28 00:17:57;;;;;;;12.02;9.65;;;;;;;;;;512184;28;1452;-82
2022/04/28 00:18:12;;;;;;;12.53;9.63;;;;;;;;;;512906;28;1512;-83
2022/04/28 00:18:27;;;;;;;10.95;9.40;;;;;;;;;;514336;28;1618;-82
2022/04/28 00:18:43;;;;;;;10.47;9.37;;;;;;;;;;513148;28;1500;-82
2022/04/28 00:18:58;;;;;;;10.83;9.73;;;;;;;;;;513347;28;1588;-81
2022/04/28 00:19:16;;;;;;;11.15;9.98;;;;;;;;;;513339;28;1825;-81
2022/04/28 00:19:32;;;;;;;10.60;9.50;;;;;;;;;;513484;28;1637;-82
2022/04/28 00:19:47;;;;;;;10.73;9.33;;;;;;;;;;512583;28;1396;-82
2022/04/28 00:20:03;;;;;;;11.10;9.75;;;;;;;;;;512554;28;1955;-82
2022/04/28 00:20:19;;;;;;;11.07;9.88;;;;;;;;;;512477;28;1511;-82
2022/04/28 00:20:35;;;;;;;10.30;9.17;;;;;;;;;;513364;28;1507;-82
2022/04/28 00:20:50;;;;;;;10.10;8.90;;;;;;;;;;514825;28;1491;-82
2022/04/28 00:21:05;;;;;;;10.25;9.00;;;;;;;;;;512832;28;1607;-82
2022/04/28 00:21:21;;;;;;;10.03;9.03;;;;;;;;;;511912;28;1613;-82
2022/04/28 00:21:36;;;;;;;10.33;9.33;;;;;;;;;;513034;28;1500;-82
2022/04/28 00:21:51;;;;;;;10.37;9.37;;;;;;;;;;514489;28;1626;-82
2022/04/28 00:22:06;;;;;;;11.20;9.68;;;;;;;;;;514982;28;1629;-82
2022/04/28 00:22:23;;;;;;;12.47;10.17;;;;;;;;;;514693;28;1576;-82
2022/04/28 00:22:39;;;;;;;11.10;9.88;;;;;;;;;;517134;28;1432;-82
2022/04/28 00:22:54;;;;;;;11.90;9.80;;;;;;;;;;517163;28;1614;-82
2022/04/28 00:23:09;;;;;;;12.25;9.65;;;;;;;;;;516646;28;1444;-82
2022/04/28 00:23:25;;;;;;;10.93;9.73;;;;;;;;;;517038;28;1975;-82
2022/04/28 00:23:40;;;;;;;11.70;10.00;;;;;;;;;;517077;28;1562;-82
2022/04/28 00:23:55;;;;;;;11.80;10.00;;;;;;;;;;516729;28;1486;-82
2022/04/28 00:24:11;;;;;;;11.17;9.93;;;;;;;;;;517318;28;1435;-82
2022/04/28 00:24:26;;;;;;;10.87;9.77;;;;;;;;;;515028;28;1560;-82
2022/04/28 00:24:41;;;;;;;10.85;9.75;;;;;;;;;;512694;28;1540;-82
2022/04/28 00:24:57;;;;;;;11.07;9.77;;;;;;;;;;512969;28;1393;-82
2022/04/28 00:25:12;;;;;;;10.70;9.57;;;;;;;;;;514893;28;1429;-82
2022/04/28 00:25:27;;;;;;;11.48;9.73;;;;;;;;;;515097;28;1621;-82
2022/04/28 00:25:43;;;;;;;12.33;9.83;;;;;;;;;;516782;28;1912;-82
2022/04/28 00:25:58;;;;;;;11.07;9.87;;;;;;;;;;517075;28;1487;-82
2022/04/28 00:26:15;;;;;;;11.52;10.20;;;;;;;;;;515207;28;1505;-82
2022/04/28 00:26:30;;;;;;;11.35;9.98;;;;;;;;;;514552;28;1480;-82
2022/04/28 00:26:45;;;;;;;10.80;9.70;;;;;;;;;;513489;28;1507;-82
2022/04/28 00:27:03;;;;;;;10.97;9.80;;;;;;;;;;513186;28;1496;-82
2022/04/28 00:27:19;;;;;;;11.57;10.32;;;;;;;;;;511139;28;1484;-82
2022/04/28 00:27:34;;;;;;;12.13;10.00;;;;;;;;;;510508;28;1710;-82
2022/04/28 00:27:51;;;;;;;11.47;10.00;;;;;;;;;;509173;29;1682;-82
2022/04/28 00:28:06;;;;;;;10.90;9.90;;;;;;;;;;511053;29;1634;-82
2022/04/28 00:28:21;;;;;;;11.00;9.87;;;;;;;;;;510640;29;1710;-82
2022/04/28 00:28:37;;;;;;;11.73;10.17;;;;;;;;;;512236;28;1465;-82
2022/04/28 00:28:52;;;;;;;11.93;10.35;;;;;;;;;;513803;28;1384;-82
2022/04/28 00:29:07;;;;;;;11.50;10.30;;;;;;;;;;513581;28;1550;-82
2022/04/28 00:29:23;;;;;;;11.37;10.17;;;;;;;;;;513113;28;1491;-82
2022/04/28 00:29:38;;;;;;;11.50;10.15;;;;;;;;;;514968;28;1452;-82
2022/04/28 00:29:53;;;;;;;11.97;10.30;;;;;;;;;;514882;28;1506;-81
2022/04/28 00:30:09;;;;;;;12.13;10.40;;;;;;;;;;516741;28;1840;-82
2022/04/28 00:30:24;;;;;;;12.02;10.13;;;;;;;;;;517337;28;1582;-82
2022/04/28 00:30:40;;;;;;;12.17;10.03;;;;;;;;;;517966;28;1490;-82
2022/04/28 00:30:55;;;;;;;11.45;10.05;;;;;;;;;;516772;28;1657;-82
2022/04/28 00:31:10;;;;;;;11.47;10.33;;;;;;;;;;515509;28;1440;-82
2022/04/28 00:31:26;;;;;;;11.40;10.27;;;;;;;;;;514798;28;2114;-82
2022/04/28 00:31:41;;;;;;;11.10;9.95;;;;;;;;;;515006;28;1749;-82
2022/04/28 00:31:57;;;;;;;11.40;10.20;;;;;;;;;;514781;28;1604;-82
2022/04/28 00:32:12;;;;;;;11.32;10.13;;;;;;;;;;514574;28;1977;-82
2022/04/28 00:32:27;;;;;;;11.60;10.10;;;;;;;;;;514778;28;1486;-82
2022/04/28 00:32:43;;;;;;;12.13;10.20;;;;;;;;;;515387;28;1727;-82
2022/04/28 00:32:58;;;;;;;12.20;10.05;;;;;;;;;;515222;28;1447;-82
2022/04/28 00:33:14;;;;;;;11.57;10.07;;;;;;;;;;515068;28;1696;-82
2022/04/28 00:33:29;;;;;;;11.25;10.15;;;;;;;;;;514986;28;1714;-82
2022/04/28 00:33:48;;;;;;;11.03;9.93;;;;;;;;;;515197;28;1708;-82
2022/04/28 00:34:03;;;;;;;11.25;10.02;;;;;;;;;;514853;28;1563;-81
2022/04/28 00:34:19;;;;;;;12.03;10.47;;;;;;;;;;514828;28;1540;-82
2022/04/28 00:34:34;;;;;;;12.25;10.57;;;;;;;;;;514375;28;1464;-82
2022/04/28 00:34:50;;;;;;;12.47;10.70;;;;;;;;;;514891;28;1512;-81
2022/04/28 00:35:05;;;;;;;12.40;10.55;;;;;;;;;;515093;28;1658;-82
2022/04/28 00:35:21;;;;;;;11.23;10.03;;;;;;;;;;514585;28;1504;-82
2022/04/28 00:35:38;;;;;;;11.38;10.10;;;;;;;;;;512867;28;1437;-82
2022/04/28 00:35:54;;;;;;;12.52;10.27;;;;;;;;;;513516;28;1538;-82
2022/04/28 00:36:10;;;;;;;11.25;10.02;;;;;;;;;;515127;28;1503;-82
2022/04/28 00:36:25;;;;;;;11.10;10.00;;;;;;;;;;514761;28;1732;-82
2022/04/28 00:36:40;;;;;;;11.40;10.20;;;;;;;;;;513193;28;1668;-82
2022/04/28 00:36:56;;;;;;;11.67;10.30;;;;;;;;;;512930;28;1799;-82
2022/04/28 00:37:11;;;;;;;11.93;10.57;;;;;;;;;;512890;28;1397;-82
2022/04/28 00:37:26;;;;;;;12.13;10.73;;;;;;;;;;513271;28;1443;-82
2022/04/28 00:37:42;;;;;;;11.68;10.48;;;;;;;;;;515218;28;1452;-82
2022/04/28 00:37:57;;;;;;;11.10;10.00;;;;;;;;;;516676;28;1849;-82
2022/04/28 00:38:13;;;;;;;11.60;10.07;;;;;;;;;;516464;28;1443;-82
2022/04/28 00:38:28;;;;;;;12.40;10.18;;;;;;;;;;517197;28;1551;-82
2022/04/28 00:38:44;;;;;;;12.05;10.20;;;;;;;;;;517061;28;1633;-82
2022/04/28 00:38:59;;;;;;;11.60;10.13;;;;;;;;;;514709;28;1762;-82
2022/04/28 00:39:14;;;;;;;11.20;10.10;;;;;;;;;;515123;28;1405;-82
2022/04/28 00:39:30;;;;;;;11.70;10.15;;;;;;;;;;515148;28;1654;-82
2022/04/28 00:39:46;;;;;;;11.97;10.13;;;;;;;;;;516506;28;1558;-82
2022/04/28 00:40:01;;;;;;;11.25;10.13;;;;;;;;;;516590;28;1626;-82
2022/04/28 00:40:17;;;;;;;11.40;10.33;;;;;;;;;;516976;28;1435;-82
2022/04/28 00:40:32;;;;;;;11.63;10.32;;;;;;;;;;516544;28;1680;-82
2022/04/28 00:40:47;;;;;;;12.37;10.20;;;;;;;;;;514739;28;1632;-82
2022/04/28 00:41:03;;;;;;;11.52;10.35;;;;;;;;;;516754;28;1566;-82
2022/04/28 00:41:18;;;;;;;11.43;10.33;;;;;;;;;;516703;28;1384;-82
2022/04/28 00:41:33;;;;;;;11.27;10.17;;;;;;;;;;516877;28;1853;-82
2022/04/28 00:41:49;;;;;;;11.30;10.10;;;;;;;;;;517565;28;1462;-82
2022/04/28 00:42:09;;;;;;;11.23;10.03;;;;;;;;;;516864;28;1562;-82
2022/04/28 00:42:24;;;;;;;11.85;10.30;;;;;;;;;;517318;28;1420;-82
2022/04/28 00:42:39;;;;;;;11.57;10.27;;;;;;;;;;517892;28;1499;-82
2022/04/28 00:43:18;;;;;;;11.70;10.53;;;;;;;;;;516933;28;1734;-82
2022/04/28 00:43:31;;;;;;;11.52;10.32;;;;;;;;;;516207;28;1716;-82
2022/04/28 00:43:51;;;;;;;11.45;10.27;;;;;;;;;;516294;28;1487;-82
2022/04/28 00:44:10;;;;;;;11.82;10.63;;;;;;;;;;516315;28;1547;-82
2022/04/28 00:44:26;;;;;;;11.77;10.57;;;;;;;;;;516834;28;1744;-82
2022/04/28 00:44:42;;;;;;;11.73;10.53;;;;;;;;;;517142;28;1379;-82
2022/04/28 00:44:57;;;;;;;11.70;10.60;;;;;;;;;;518604;28;1712;-82
2022/04/28 00:45:12;;;;;;;11.73;10.63;;;;;;;;;;519103;28;1528;-82
2022/04/28 00:45:28;;;;;;;11.82;10.68;;;;;;;;;;517925;28;1581;-82
2022/04/28 00:45:43;;;;;;;12.33;11.07;;;;;;;;;;517858;28;1479;-82
2022/04/28 00:45:59;;;;;;;12.20;11.00;;;;;;;;;;517920;28;1570;-82
2022/04/28 00:46:14;;;;;;;11.77;10.68;;;;;;;;;;518512;28;1498;-82
2022/04/28 00:46:30;;;;;;;11.60;10.40;;;;;;;;;;517945;28;1594;-82
2022/04/28 00:46:45;;;;;;;11.97;10.60;;;;;;;;;;519161;28;1514;-82
2022/04/28 00:47:00;;;;;;;11.93;10.73;;;;;;;;;;519422;28;1846;-82
2022/04/28 00:47:16;;;;;;;11.87;10.73;;;;;;;;;;519150;28;1431;-82
2022/04/28 00:50:40;;;;;;;11.88;10.68;;;;;;;;;;518955;28;1495;-82
2022/04/28 00:50:57;;;;;;;11.77;10.60;;;;;;;;;;518498;28;1494;-82
2022/04/28 00:51:13;;;;;;;12.00;10.65;;;;;;;;;;516546;28;1649;-82
2022/04/28 00:51:32;;;;;;;11.90;10.68;;;;;;;;;;514630;28;1830;-82
2022/04/28 00:51:48;;;;;;;11.50;10.40;;;;;;;;;;514605;28;1405;-82
2022/04/28 00:52:07;;;;;;;11.70;10.50;;;;;;;;;;512831;28;1540;-81
2022/04/28 00:52:23;;;;;;;12.02;10.75;;;;;;;;;;513069;28;1918;-82
2022/04/28 00:52:39;;;;;;;12.57;10.90;;;;;;;;;;512720;28;1461;-82
2022/04/28 00:52:54;;;;;;;12.32;10.80;;;;;;;;;;513109;28;1750;-81
2022/04/28 00:53:13;;;;;;;11.47;10.37;;;;;;;;;;514053;28;1414;-81
2022/04/28 00:53:30;;;;;;;11.35;10.32;;;;;;;;;;516877;28;1435;-82
2022/04/28 00:53:48;;;;;;;11.52;10.43;;;;;;;;;;517028;28;1500;-82
2022/04/28 00:54:04;;;;;;;12.55;10.73;;;;;;;;;;518454;28;1661;-81
2022/04/28 00:54:21;;;;;;;12.98;11.25;;;;;;;;;;519082;28;1656;-82
2022/04/28 00:54:37;;;;;;;12.43;11.13;;;;;;;;;;518541;28;1617;-82
2022/04/28 00:54:53;;;;;;;11.67;10.53;;;;;;;;;;519419;28;1613;-82
2022/04/28 00:55:09;;;;;;;11.88;10.68;;;;;;;;;;518458;28;1522;-82
2022/04/28 00:55:24;;;;;;;12.23;10.73;;;;;;;;;;517046;28;1412;-82
2022/04/28 00:55:43;;;;;;;11.93;10.73;;;;;;;;;;516530;28;1683;-82
2022/04/28 00:55:58;;;;;;;11.90;10.63;;;;;;;;;;517096;28;1566;-82
2022/04/28 00:56:15;;;;;;;13.07;10.90;;;;;;;;;;514018;28;1462;-82
2022/04/28 00:56:31;;;;;;;12.43;11.13;;;;;;;;;;512817;28;1624;-82
2022/04/28 00:56:46;;;;;;;12.25;10.95;;;;;;;;;;512893;28;1509;-82
2022/04/28 00:57:02;;;;;;;13.57;11.30;;;;;;;;;;512848;28;1584;-82
2022/04/28 00:57:18;;;;;;;13.27;11.00;;;;;;;;;;513880;28;1466;-82
2022/04/28 00:57:34;;;;;;;13.68;11.02;;;;;;;;;;515432;28;1548;-82
2022/04/28 00:57:51;;;;;;;12.68;11.38;;;;;;;;;;514953;28;1611;-82
2022/04/28 00:58:07;;;;;;;12.07;10.90;;;;;;;;;;515747;28;1612;-82
2022/04/28 00:58:23;;;;;;;12.00;10.80;;;;;;;;;;516945;28;1846;-82
2022/04/28 00:58:40;;;;;;;13.70;11.40;;;;;;;;;;516969;28;1760;-82
2022/04/28 00:58:57;;;;;;;12.45;11.18;;;;;;;;;;517788;28;1538;-82
2022/04/28 00:59:12;;;;;;;12.15;11.00;;;;;;;;;;517068;28;1640;-82
2022/04/28 00:59:29;;;;;;;12.07;10.87;;;;;;;;;;516926;28;1546;-82
2022/04/28 00:59:46;;;;;;;12.20;11.00;;;;;;;;;;517123;28;1507;-82
2022/04/28 01:00:01;;;;;;;12.60;11.30;;;;;;;;;;515711;28;1952;-82
2022/04/28 01:00:17;;;;;;;12.43;11.17;;;;;;;;;;516943;28;1518;-82
2022/04/28 01:00:33;;;;;;;12.15;10.95;;;;;;;;;;516704;28;1460;-82
2022/04/28 01:00:49;;;;;;;12.35;11.05;;;;;;;;;;516708;28;1559;-82
2022/04/28 01:01:05;;;;;;;12.32;11.13;;;;;;;;;;516206;28;1468;-82
2022/04/28 01:01:21;;;;;;;11.77;10.68;;;;;;;;;;517191;28;1879;-82
2022/04/28 01:01:37;;;;;;;12.30;11.10;;;;;;;;;;517199;28;1465;-82
2022/04/28 01:01:53;;;;;;;12.23;11.05;;;;;;;;;;516818;28;1364;-82
2022/04/28 01:02:11;;;;;;;11.98;10.77;;;;;;;;;;516837;28;1693;-82
2022/04/28 01:02:26;;;;;;;12.13;10.93;;;;;;;;;;517089;28;1451;-82
2022/04/28 01:02:42;;;;;;;12.00;10.80;;;;;;;;;;517308;28;1954;-82
2022/04/28 01:02:57;;;;;;;12.07;10.82;;;;;;;;;;516616;28;1639;-82
2022/04/28 01:03:13;;;;;;;12.00;10.77;;;;;;;;;;517082;28;1497;-82
2022/04/28 01:03:30;;;;;;;12.30;10.98;;;;;;;;;;515528;28;1519;-82
2022/04/28 01:03:46;;;;;;;12.25;11.00;;;;;;;;;;516047;28;1444;-82
2022/04/28 01:04:01;;;;;;;12.45;11.18;;;;;;;;;;516854;28;1853;-82
2022/04/28 01:04:17;;;;;;;12.17;10.97;;;;;;;;;;516990;28;1472;-82
2022/04/28 01:04:33;;;;;;;11.85;10.75;;;;;;;;;;516635;28;1610;-82
2022/04/28 01:04:49;;;;;;;12.38;11.18;;;;;;;;;;516314;28;1497;-82
2022/04/28 01:05:04;;;;;;;12.55;11.25;;;;;;;;;;515348;28;1888;-81
2022/04/28 01:05:20;;;;;;;12.10;10.90;;;;;;;;;;515088;28;1560;-81
2022/04/28 01:05:35;;;;;;;12.65;11.35;;;;;;;;;;515045;28;1838;-82
2022/04/28 01:05:50;;;;;;;12.87;11.53;;;;;;;;;;514558;28;1539;-82
2022/04/28 01:06:07;;;;;;;12.97;11.27;;;;;;;;;;515548;28;1503;-82
2022/04/28 01:06:22;;;;;;;13.93;11.15;;;;;;;;;;516632;28;1551;-82
2022/04/28 01:06:41;;;;;;;12.47;10.97;;;;;;;;;;516825;28;1405;-82
2022/04/28 01:06:56;;;;;;;12.55;11.07;;;;;;;;;;516953;28;1600;-82
2022/04/28 01:07:12;;;;;;;12.93;11.48;;;;;;;;;;516431;28;1586;-82
2022/04/28 01:07:27;;;;;;;13.13;11.73;;;;;;;;;;514947;28;2363;-82
2022/04/28 01:07:43;;;;;;;13.37;11.83;;;;;;;;;;515268;28;1914;-82
2022/04/28 01:07:59;;;;;;;13.43;12.03;;;;;;;;;;517448;28;1495;-82
2022/04/28 01:08:15;;;;;;;13.38;12.00;;;;;;;;;;514682;28;1520;-82
2022/04/28 01:08:30;;;;;;;13.77;12.38;;;;;;;;;;514361;28;1701;-82
2022/04/28 01:08:46;;;;;;;13.93;12.52;;;;;;;;;;514715;28;1932;-82
2022/04/28 01:09:01;;;;;;;13.00;11.70;;;;;;;;;;515079;28;1507;-82
2022/04/28 01:09:17;;;;;;;12.65;11.30;;;;;;;;;;515335;28;1743;-82
2022/04/28 01:09:37;;;;;;;12.83;11.43;;;;;;;;;;516587;28;1563;-82
2022/04/28 01:09:53;;;;;;;12.80;11.50;;;;;;;;;;516435;28;1495;-82
2022/04/28 01:10:08;;;;;;;13.33;11.93;;;;;;;;;;517910;28;1460;-82
2022/04/28 01:10:24;;;;;;;13.27;11.88;;;;;;;;;;518284;28;1771;-82
2022/04/28 01:10:39;;;;;;;12.80;11.50;;;;;;;;;;517365;28;1642;-82
2022/04/28 01:10:56;;;;;;;13.20;11.67;;;;;;;;;;516735;28;1657;-81
2022/04/28 01:11:12;;;;;;;13.30;11.90;;;;;;;;;;516770;28;1499;-82
2022/04/28 01:11:28;;;;;;;13.43;12.05;;;;;;;;;;516630;28;1459;-82
2022/04/28 01:11:44;;;;;;;13.57;11.93;;;;;;;;;;517406;28;1705;-82
2022/04/28 01:11:59;;;;;;;13.45;12.05;;;;;;;;;;517504;28;1530;-82
2022/04/28 01:12:15;;;;;;;13.10;11.80;;;;;;;;;;517853;28;1914;-82
2022/04/28 01:12:31;;;;;;;13.20;11.80;;;;;;;;;;517048;28;1440;-82
2022/04/28 01:12:47;;;;;;;13.40;12.00;;;;;;;;;;513722;28;1537;-82
2022/04/28 01:13:03;;;;;;;12.93;11.63;;;;;;;;;;513990;28;1422;-82
2022/04/28 01:13:18;;;;;;;12.93;11.63;;;;;;;;;;515159;28;1601;-82
2022/04/28 01:13:33;;;;;;;13.67;11.77;;;;;;;;;;513338;28;1437;-81
2022/04/28 01:13:49;;;;;;;13.30;11.50;;;;;;;;;;512127;28;1632;-82
2022/04/28 01:14:04;;;;;;;13.07;11.67;;;;;;;;;;512140;28;1517;-82
2022/04/28 01:14:20;;;;;;;12.98;11.52;;;;;;;;;;512152;28;1496;-81
2022/04/28 01:14:35;;;;;;;12.67;11.37;;;;;;;;;;510412;28;1419;-82
2022/04/28 01:14:51;;;;;;;12.73;11.50;;;;;;;;;;512798;28;1432;-82
2022/04/28 01:15:06;;;;;;;12.63;11.33;;;;;;;;;;513271;28;1450;-82
2022/04/28 01:15:22;;;;;;;12.80;11.50;;;;;;;;;;514504;28;1759;-82
2022/04/28 01:15:47;;;;;;;12.70;11.40;;;;;;;;;;512212;28;1362;-82
2022/04/28 01:16:03;;;;;;;13.13;11.73;;;;;;;;;;514243;28;1595;-82
2022/04/28 01:16:18;;;;;;;13.27;11.90;;;;;;;;;;513385;28;1468;-82
2022/04/28 01:16:34;;;;;;;13.07;11.73;;;;;;;;;;512743;28;1767;-82
2022/04/28 01:16:49;;;;;;;13.70;12.03;;;;;;;;;;514447;28;1717;-82
2022/04/28 01:17:04;;;;;;;13.60;12.07;;;;;;;;;;514822;28;1619;-82
2022/04/28 01:17:21;;;;;;;13.75;11.93;;;;;;;;;;514827;28;1511;-82
2022/04/28 01:17:36;;;;;;;14.43;12.05;;;;;;;;;;514129;28;1703;-82
2022/04/28 01:17:52;;;;;;;13.27;11.73;;;;;;;;;;514937;28;1678;-82
2022/04/28 01:18:07;;;;;;;12.90;11.60;;;;;;;;;;514849;28;1630;-82
2022/04/28 01:18:22;;;;;;;13.30;11.95;;;;;;;;;;515397;28;1640;-82
2022/04/28 01:18:38;;;;;;;13.27;11.87;;;;;;;;;;514997;28;1650;-82
2022/04/28 01:18:53;;;;;;;13.07;11.70;;;;;;;;;;512866;28;1488;-82
2022/04/28 01:19:09;;;;;;;13.20;11.90;;;;;;;;;;512960;28;1544;-82
2022/04/28 01:19:24;;;;;;;13.40;11.93;;;;;;;;;;513173;28;1525;-82
2022/04/28 01:19:40;;;;;;;12.93;11.57;;;;;;;;;;510144;28;1552;-81
2022/04/28 01:19:55;;;;;;;12.87;11.60;;;;;;;;;;510492;28;1415;-81
2022/04/28 01:20:11;;;;;;;14.73;11.98;;;;;;;;;;512939;28;1623;-82
2022/04/28 01:20:26;;;;;;;15.03;11.80;;;;;;;;;;513015;28;1498;-82
2022/04/28 01:20:42;;;;;;;13.27;11.82;;;;;;;;;;510183;28;1433;-82
2022/04/28 01:21:02;;;;;;;14.00;12.60;;;;;;;;;;510900;28;1414;-82
2022/04/28 01:21:18;;;;;;;13.65;12.27;;;;;;;;;;512124;28;1560;-82
2022/04/28 01:21:33;;;;;;;13.27;11.87;;;;;;;;;;511728;28;1664;-82
2022/04/28 01:21:50;;;;;;;12.68;11.45;;;;;;;;;;512482;28;1559;-82
2022/04/28 01:22:06;;;;;;;13.15;11.85;;;;;;;;;;512729;28;1461;-82
2022/04/28 01:22:22;;;;;;;13.23;11.98;;;;;;;;;;514255;28;1437;-82
2022/04/28 01:22:37;;;;;;;13.17;11.87;;;;;;;;;;515766;28;1484;-82
2022/04/28 01:22:52;;;;;;;13.43;12.10;;;;;;;;;;516839;28;1583;-82
2022/04/28 01:23:09;;;;;;;13.63;12.20;;;;;;;;;;516519;28;1428;-82
2022/04/28 01:23:25;;;;;;;13.75;12.27;;;;;;;;;;517233;28;1723;-82
2022/04/28 01:23:40;;;;;;;13.50;12.13;;;;;;;;;;517436;28;2092;-82
2022/04/28 01:23:56;;;;;;;13.53;11.87;;;;;;;;;;517884;28;1649;-82
2022/04/28 01:24:12;;;;;;;14.63;12.05;;;;;;;;;;517858;28;1511;-82
2022/04/28 01:24:28;;;;;;;15.02;12.65;;;;;;;;;;518714;28;1443;-82
2022/04/28 01:24:43;;;;;;;14.20;12.70;;;;;;;;;;518735;28;2036;-82
2022/04/28 01:25:07;;;;;;;13.63;12.27;;;;;;;;;;518992;28;1609;-82
2022/04/28 01:25:22;;;;;;;13.40;12.00;;;;;;;;;;516927;28;1442;-81
2022/04/28 01:25:38;;;;;;;13.50;12.10;;;;;;;;;;516649;28;1678;-81
2022/04/28 01:25:53;;;;;;;13.70;12.07;;;;;;;;;;517259;28;1432;-81
2022/04/28 01:26:08;;;;;;;14.63;12.57;;;;;;;;;;516944;28;1655;-81
2022/04/28 01:26:27;;;;;;;14.63;12.77;;;;;;;;;;517403;28;1425;-82
2022/04/28 01:26:44;;;;;;;14.50;12.80;;;;;;;;;;517046;28;1491;-82
2022/04/28 01:27:01;;;;;;;13.98;12.45;;;;;;;;;;516554;28;1739;-82
2022/04/28 01:27:18;;;;;;;14.90;12.50;;;;;;;;;;517415;28;1510;-82
2022/04/28 01:27:35;;;;;;;14.40;12.75;;;;;;;;;;517149;28;1512;-82
2022/04/28 01:27:51;;;;;;;13.77;12.38;;;;;;;;;;517206;28;1526;-82
2022/04/28 01:28:08;;;;;;;13.43;12.07;;;;;;;;;;516873;28;1689;-82
2022/04/28 01:28:23;;;;;;;14.15;12.73;;;;;;;;;;514856;28;1443;-81
2022/04/28 01:28:38;;;;;;;13.90;12.50;;;;;;;;;;514840;28;1710;-81
2022/04/28 01:28:54;;;;;;;13.97;12.43;;;;;;;;;;514992;28;1400;-82
2022/04/28 01:29:09;;;;;;;14.27;12.63;;;;;;;;;;512624;28;2002;-82
2022/04/28 01:29:24;;;;;;;14.53;13.00;;;;;;;;;;512491;28;1350;-81
2022/04/28 01:29:40;;;;;;;14.73;13.13;;;;;;;;;;512169;28;1560;-81
2022/04/28 01:29:55;;;;;;;13.82;12.43;;;;;;;;;;512188;28;1445;-81
2022/04/28 01:30:13;;;;;;;13.40;12.00;;;;;;;;;;512426;28;1587;-81
2022/04/28 01:30:29;;;;;;;14.52;12.43;;;;;;;;;;514488;28;1601;-81
2022/04/28 01:30:44;;;;;;;14.10;12.50;;;;;;;;;;514467;28;1492;-81
2022/04/28 01:31:00;;;;;;;13.67;12.27;;;;;;;;;;514646;28;1477;-81
2022/04/28 01:31:15;;;;;;;13.85;12.35;;;;;;;;;;514370;28;1512;-81
2022/04/28 01:31:31;;;;;;;14.30;12.80;;;;;;;;;;512941;28;1851;-81
2022/04/28 01:31:46;;;;;;;14.63;12.63;;;;;;;;;;512735;28;1591;-81
2022/04/28 01:32:02;;;;;;;14.57;12.40;;;;;;;;;;513084;28;1711;-81
2022/04/28 01:32:17;;;;;;;14.70;12.63;;;;;;;;;;514368;28;1988;-81
2022/04/28 01:32:33;;;;;;;16.40;12.73;;;;;;;;;;514462;28;1848;-81
2022/04/28 01:32:48;;;;;;;15.10;12.68;;;;;;;;;;512836;28;1418;-81
2022/04/28 01:33:05;;;;;;;14.37;12.97;;;;;;;;;;513443;28;1723;-81
2022/04/28 01:33:20;;;;;;;14.80;13.30;;;;;;;;;;512964;28;1599;-81
2022/04/28 01:33:35;;;;;;;14.33;12.83;;;;;;;;;;511018;28;1739;-81
2022/04/28 01:33:51;;;;;;;13.93;12.40;;;;;;;;;;510462;28;1410;-81
2022/04/28 01:34:06;;;;;;;14.20;12.70;;;;;;;;;;511021;28;2031;-81
2022/04/28 01:34:21;;;;;;;14.20;12.70;;;;;;;;;;511242;28;1462;-81
2022/04/28 01:34:37;;;;;;;14.10;12.60;;;;;;;;;;511078;28;1723;-81
2022/04/28 01:34:52;;;;;;;13.70;12.30;;;;;;;;;;511962;28;1441;-81
2022/04/28 01:35:08;;;;;;;13.93;12.47;;;;;;;;;;512861;28;1509;-81
2022/04/28 01:35:24;;;;;;;14.23;12.73;;;;;;;;;;511523;28;1634;-81
2022/04/28 01:35:40;;;;;;;13.90;12.40;;;;;;;;;;513494;28;1425;-81
2022/04/28 01:35:55;;;;;;;14.27;12.57;;;;;;;;;;514637;28;1505;-82
2022/04/28 01:36:10;;;;;;;14.20;12.50;;;;;;;;;;514651;28;1935;-81
2022/04/28 01:36:26;;;;;;;13.57;12.07;;;;;;;;;;514696;28;1691;-81
2022/04/28 01:36:41;;;;;;;13.33;12.00;;;;;;;;;;516748;28;1459;-81
2022/04/28 01:36:57;;;;;;;13.70;12.17;;;;;;;;;;516692;28;1922;-81
2022/04/28 01:37:12;;;;;;;14.50;12.10;;;;;;;;;;516961;28;1416;-82
2022/04/28 01:37:27;;;;;;;13.40;11.90;;;;;;;;;;516602;28;1601;-81
2022/04/28 01:37:43;;;;;;;13.43;12.02;;;;;;;;;;514293;28;1499;-81
2022/04/28 01:37:58;;;;;;;13.73;12.30;;;;;;;;;;514689;28;1438;-81
2022/04/28 01:38:13;;;;;;;13.57;12.07;;;;;;;;;;514815;28;1555;-81
2022/04/28 01:38:29;;;;;;;13.75;12.32;;;;;;;;;;514757;28;1528;-81
2022/04/28 01:38:44;;;;;;;14.03;12.63;;;;;;;;;;513073;28;1508;-81